Time;durP1;ratioP1;P1;durP2;ratioP2;P2;SDS_P1;SDS_P2;PMS_P1;PMS_P2;Temp;Humidity;BMP_temperature;BMP_pressure;BME280_temperature;BME280_humidity;BME280_pressure;Samples;Min_cycle;Max_cycle;Signal;HPM_P1;HPM_P2
2022/03/07 00:01:47;;;;;;;44.78;25.08;;;;;;;1.40;50.40;101035.47;4999498;28;20182;-79
2022/03/07 00:04:16;;;;;;;41.53;25.02;;;;;;;1.39;51.19;101039.47;5016072;28;20091;-78
2022/03/07 00:06:42;;;;;;;37.08;23.83;;;;;;;1.39;50.87;101041.47;5017267;28;20037;-78
2022/03/07 00:09:07;;;;;;;44.42;24.80;;;;;;;1.33;51.00;101038.28;5000287;28;20094;-79
2022/03/07 00:11:34;;;;;;;43.55;24.05;;;;;;;1.41;50.34;101045.50;5000354;28;20033;-78
2022/03/07 00:14:00;;;;;;;40.28;24.27;;;;;;;1.38;50.95;101039.91;5000580;28;20040;-78
2022/03/07 00:16:25;;;;;;;43.65;24.52;;;;;;;1.34;50.83;101039.88;5034121;28;20100;-78
2022/03/07 00:18:50;;;;;;;42.10;24.85;;;;;;;1.37;50.64;101041.91;4999484;28;20033;-77
2022/03/07 00:21:16;;;;;;;37.75;22.77;;;;;;;1.36;50.99;101045.09;5015982;28;20021;-76
2022/03/07 00:23:41;;;;;;;39.65;23.20;;;;;;;1.31;51.13;101043.50;4999622;28;20528;-78
2022/03/07 00:26:07;;;;;;;36.65;23.05;;;;;;;1.28;51.30;101036.66;5015769;28;20029;-78
2022/03/07 00:28:33;;;;;;;39.90;23.00;;;;;;;1.29;50.89;101038.25;5013911;28;20489;-77
2022/03/07 00:30:58;;;;;;;36.17;21.63;;;;;;;1.27;50.92;101042.69;5031273;28;20026;-77
2022/03/07 00:33:24;;;;;;;37.40;23.92;;;;;;;1.25;51.04;101034.66;4997449;28;20025;-78
2022/03/07 00:35:49;;;;;;;38.88;23.23;;;;;;;1.22;51.19;101024.25;4997158;28;20485;-77
2022/03/07 00:38:14;;;;;;;33.55;22.05;;;;;;;1.29;50.75;101046.69;4996762;28;20084;-76
2022/03/07 00:40:40;;;;;;;33.53;21.27;;;;;;;1.28;50.94;101038.69;5013557;28;20032;-76
2022/03/07 00:43:09;;;;;;;38.70;22.70;;;;;;;1.30;51.09;101033.47;5013535;28;20021;-77
2022/03/07 00:45:35;;;;;;;37.33;21.35;;;;;;;1.30;50.78;101042.69;4998155;28;20029;-76
2022/03/07 00:48:00;;;;;;;35.33;21.65;;;;;;;1.27;50.61;101037.06;5015686;28;20408;-76
2022/03/07 00:50:26;;;;;;;39.20;23.42;;;;;;;1.26;51.10;101035.47;5015537;28;20051;-76
2022/03/07 00:52:51;;;;;;;34.65;20.52;;;;;;;1.25;51.31;101025.44;5033517;28;20033;-77
2022/03/07 00:55:16;;;;;;;37.15;21.50;;;;;;;1.29;51.20;101029.03;4983077;28;20117;-76
2022/03/07 00:57:42;;;;;;;34.53;20.20;;;;;;;1.26;50.93;101041.06;4998932;28;20467;-77
2022/03/07 01:00:08;;;;;;;37.78;20.70;;;;;;;1.25;51.04;101025.44;5033546;28;20103;-77
2022/03/07 01:02:33;;;;;;;34.63;22.38;;;;;;;1.24;50.88;101024.63;5015460;28;20029;-78
2022/03/07 01:05:00;;;;;;;42.42;23.65;;;;;;;1.23;50.95;101034.25;4999082;28;20382;-77
2022/03/07 01:07:26;;;;;;;35.10;21.48;;;;;;;1.23;51.47;101027.84;5032984;28;20436;-76
2022/03/07 01:09:51;;;;;;;34.85;21.17;;;;;;;1.25;51.37;101028.25;5015467;28;20021;-77
2022/03/07 01:12:17;;;;;;;36.03;21.20;;;;;;;1.21;51.45;101030.25;5033136;28;20029;-78
2022/03/07 01:14:42;;;;;;;39.20;21.30;;;;;;;1.18;51.60;101023.44;5015512;28;20036;-78
2022/03/07 01:17:08;;;;;;;37.65;21.75;;;;;;;1.20;51.45;101031.44;5032968;28;20028;-77
2022/03/07 01:19:33;;;;;;;35.08;21.38;;;;;;;1.20;51.74;101025.81;5015330;28;20029;-77
2022/03/07 01:21:59;;;;;;;33.65;21.75;;;;;;;1.19;51.86;101035.44;4998851;28;20501;-77
2022/03/07 01:24:24;;;;;;;37.97;21.70;;;;;;;1.08;51.83;101003.78;4998790;28;20021;-76
2022/03/07 01:26:49;;;;;;;36.30;21.65;;;;;;;1.22;51.20;101018.63;4998787;28;20025;-77
2022/03/07 01:29:15;;;;;;;37.08;21.88;;;;;;;1.23;51.96;101016.63;5015037;28;20491;-77
2022/03/07 01:31:40;;;;;;;39.97;22.20;;;;;;;1.25;51.32;101009.41;4998638;28;20028;-77
2022/03/07 01:34:05;;;;;;;34.70;21.08;;;;;;;1.27;51.78;101009.81;4998667;28;20100;-77
2022/03/07 01:36:31;;;;;;;33.33;20.65;;;;;;;1.26;51.26;100999.00;5015420;28;20100;-77
2022/03/07 01:38:56;;;;;;;36.17;20.42;;;;;;;1.27;51.06;101012.63;5011639;28;20061;-77
2022/03/07 01:41:21;;;;;;;37.65;19.67;;;;;;;1.15;51.34;100979.34;4995493;28;20416;-77
2022/03/07 01:43:47;;;;;;;34.42;20.88;;;;;;;1.24;51.24;101002.19;4995361;28;20152;-77
2022/03/07 01:46:12;;;;;;;33.10;19.88;;;;;;;1.22;51.53;100996.19;5013025;28;20033;-76
2022/03/07 01:48:38;;;;;;;31.85;18.80;;;;;;;1.26;51.55;100999.00;5011614;28;20394;-76
2022/03/07 01:51:04;;;;;;;36.38;19.40;;;;;;;1.23;51.82;100991.38;5011631;28;20407;-78
2022/03/07 01:53:29;;;;;;;31.70;19.35;;;;;;;1.26;51.64;100991.38;5011690;28;20052;-77
2022/03/07 01:55:55;;;;;;;30.83;18.85;;;;;;;1.32;51.99;100988.19;5013152;28;20022;-76
2022/03/07 01:58:21;;;;;;;31.60;19.92;;;;;;;1.31;51.97;100978.94;4997918;28;20030;-77
2022/03/07 02:00:47;;;;;;;34.33;20.38;;;;;;;1.32;52.09;100980.56;4998534;28;20080;-77
2022/03/07 02:03:13;;;;;;;35.70;19.40;;;;;;;1.33;52.53;100982.19;5015247;28;20054;-77
2022/03/07 02:05:40;;;;;;;28.42;18.20;;;;;;;1.37;51.83;100988.59;5014941;28;20471;-77
2022/03/07 02:08:06;;;;;;;31.77;18.48;;;;;;;1.32;52.34;100979.75;5014957;28;20025;-77
2022/03/07 02:10:31;;;;;;;34.95;19.25;;;;;;;1.32;52.04;100968.53;5015173;28;20033;-77
2022/03/07 02:12:56;;;;;;;37.50;19.88;;;;;;;1.36;51.91;100978.56;5014923;28;20061;-78
2022/03/07 02:15:22;;;;;;;35.97;20.17;;;;;;;1.36;52.61;100966.53;5014845;28;20026;-77
2022/03/07 02:17:47;;;;;;;32.30;19.13;;;;;;;1.32;52.83;100966.53;4998558;28;20022;-77
2022/03/07 02:20:13;;;;;;;32.67;19.00;;;;;;;1.29;52.22;100970.94;5014957;28;20459;-75
2022/03/07 02:22:39;;;;;;;33.28;20.23;;;;;;;1.25;52.80;100967.31;5014930;28;20040;-77
2022/03/07 02:25:05;;;;;;;37.63;19.70;;;;;;;1.28;52.62;100971.34;4997192;28;20049;-77
2022/03/07 02:27:32;;;;;;;35.35;19.05;;;;;;;1.27;52.68;100966.94;5012472;28;20376;-77
2022/03/07 02:29:59;;;;;;;36.72;20.48;;;;;;;1.25;52.87;100960.91;5012428;28;20033;-78
2022/03/07 02:32:25;;;;;;;37.08;19.80;;;;;;;1.21;53.03;100955.31;5013928;28;20021;-77
2022/03/07 02:34:51;;;;;;;33.42;20.02;;;;;;;1.26;52.55;100956.91;4995852;28;20561;-77
2022/03/07 02:37:16;;;;;;;38.47;19.17;;;;;;;1.30;52.66;100957.69;5013759;28;20031;-77
2022/03/07 02:39:42;;;;;;;38.80;20.25;;;;;;;1.27;52.85;100966.94;5012415;28;20057;-77
2022/03/07 02:42:07;;;;;;;32.67;20.08;;;;;;;1.27;52.83;100970.53;4997151;28;20030;-77
2022/03/07 02:44:33;;;;;;;37.60;21.73;;;;;;;1.25;52.79;100969.31;4997757;28;20029;-77
2022/03/07 02:46:58;;;;;;;32.72;20.08;;;;;;;1.23;53.44;100974.53;5014146;28;20463;-76
2022/03/07 02:49:23;;;;;;;36.03;20.77;;;;;;;1.19;53.06;100966.09;4997938;28;20099;-77
2022/03/07 02:51:49;;;;;;;31.83;19.05;;;;;;;1.23;53.71;100977.34;5014271;28;20398;-77
2022/03/07 02:54:14;;;;;;;34.97;21.00;;;;;;;1.23;53.60;100980.94;4998045;28;20504;-76
2022/03/07 02:56:39;;;;;;;39.65;19.80;;;;;;;1.23;53.06;100969.72;5014384;28;20032;-76
2022/03/07 02:59:05;;;;;;;31.25;18.65;;;;;;;1.22;53.44;100972.94;5014574;28;20057;-77
2022/03/07 03:01:30;;;;;;;35.22;19.73;;;;;;;1.21;53.78;100972.13;5015309;28;20033;-77
2022/03/07 03:03:55;;;;;;;32.97;20.00;;;;;;;1.14;53.23;100957.28;5014809;28;20029;-75
2022/03/07 03:06:21;;;;;;;35.20;19.45;;;;;;;1.18;53.39;100970.13;5013866;28;20029;-77
2022/03/07 03:08:46;;;;;;;37.80;19.70;;;;;;;1.18;53.94;100972.94;5014568;28;20026;-77
2022/03/07 03:11:12;;;;;;;33.47;19.70;;;;;;;1.16;53.52;100961.31;4997563;28;20037;-77
2022/03/07 03:13:38;;;;;;;37.30;18.73;;;;;;;1.14;53.48;100966.50;5013936;28;20447;-77
2022/03/07 03:16:04;;;;;;;35.63;19.13;;;;;;;1.13;54.16;100961.31;5015214;28;20057;-76
2022/03/07 03:18:30;;;;;;;33.60;18.15;;;;;;;1.12;54.72;100957.69;5015031;28;20030;-77
2022/03/07 03:20:55;;;;;;;29.55;17.98;;;;;;;1.16;54.21;100960.50;5013735;28;20028;-77
2022/03/07 03:23:22;;;;;;;32.80;18.42;;;;;;;1.16;54.43;100961.31;5014055;28;20404;-75
2022/03/07 03:25:48;;;;;;;27.48;17.15;;;;;;;1.13;54.77;100953.69;4997611;28;20064;-77
2022/03/07 03:28:14;;;;;;;31.38;17.42;;;;;;;1.16;54.37;100960.50;4997097;28;20030;-77
2022/03/07 03:30:39;;;;;;;30.60;17.67;;;;;;;1.16;54.61;100952.88;4997500;28;20126;-77
2022/03/07 03:33:05;;;;;;;32.47;17.50;;;;;;;1.17;54.59;100959.31;5013744;28;20110;-77
2022/03/07 03:35:31;;;;;;;29.98;18.08;;;;;;;1.18;54.70;100947.69;5014293;28;20421;-77
2022/03/07 03:37:56;;;;;;;27.17;17.02;;;;;;;1.18;54.44;100944.09;5015164;28;20025;-77
2022/03/07 03:40:22;;;;;;;28.20;16.67;;;;;;;1.14;55.15;100944.06;5031855;28;20090;-77
2022/03/07 03:42:47;;;;;;;28.98;18.17;;;;;;;1.17;55.01;100948.09;5016713;28;20390;-77
2022/03/07 03:45:13;;;;;;;26.88;16.52;;;;;;;1.18;55.10;100939.28;5000321;28;20033;-78
2022/03/07 03:47:40;;;;;;;28.35;17.73;;;;;;;1.16;54.62;100938.06;5034950;28;20029;-76
2022/03/07 03:50:07;;;;;;;28.90;16.45;;;;;;;1.21;55.24;100946.09;5022852;28;20025;-76
2022/03/07 03:52:33;;;;;;;30.25;17.00;;;;;;;1.21;55.27;100940.47;5041722;28;20072;-76
2022/03/07 03:54:58;;;;;;;29.40;17.55;;;;;;;1.20;55.02;100950.06;5029798;28;20093;-77
2022/03/07 03:57:24;;;;;;;29.85;16.50;;;;;;;1.21;54.89;100941.28;5048771;28;20089;-79
2022/03/07 03:59:50;;;;;;;29.05;16.85;;;;;;;1.21;55.51;100944.09;5030354;28;20074;-77
2022/03/07 04:02:16;;;;;;;30.25;15.65;;;;;;;1.18;55.29;100944.88;5026290;28;20159;-77
2022/03/07 04:04:41;;;;;;;31.48;16.48;;;;;;;1.16;55.49;100941.66;5025104;28;20482;-77
2022/03/07 04:07:07;;;;;;;27.15;15.57;;;;;;;1.23;55.29;100947.28;5010740;28;20026;-76
2022/03/07 04:09:33;;;;;;;30.00;17.83;;;;;;;1.24;55.71;100948.06;5010700;28;20056;-78
2022/03/07 04:11:58;;;;;;;27.60;16.50;;;;;;;1.21;55.84;100948.88;5025910;28;20018;-78
2022/03/07 04:14:24;;;;;;;27.58;15.65;;;;;;;1.17;55.90;100948.88;5037385;28;20029;-77
2022/03/07 04:16:49;;;;;;;27.83;15.95;;;;;;;1.16;55.88;100944.47;5018340;28;20022;-76
2022/03/07 04:19:15;;;;;;;26.23;14.80;;;;;;;1.16;55.94;100946.47;5016728;28;20025;-78
2022/03/07 04:21:41;;;;;;;25.85;15.23;;;;;;;1.11;56.01;100935.66;5000213;28;20048;-78
2022/03/07 04:24:08;;;;;;;27.35;15.65;;;;;;;1.12;56.38;100935.25;5034594;28;20033;-77
2022/03/07 04:26:36;;;;;;;27.73;16.15;;;;;;;1.15;56.23;100948.47;5019741;28;20033;-77
2022/03/07 04:29:07;;;;;;;27.42;14.35;;;;;;;1.14;56.14;100943.25;5003827;28;20025;-78
2022/03/07 04:31:35;;;;;;;26.63;15.98;;;;;;;1.10;56.47;100936.84;5003131;28;20029;-77
2022/03/07 04:34:00;;;;;;;26.17;14.90;;;;;;;1.12;56.33;100937.25;5018579;28;20399;-76
2022/03/07 04:36:26;;;;;;;29.40;16.50;;;;;;;1.15;56.65;100947.66;5000564;28;20536;-77
2022/03/07 04:38:53;;;;;;;25.38;15.90;;;;;;;1.15;56.58;100939.25;5018077;28;20143;-75
2022/03/07 04:41:20;;;;;;;27.77;14.93;;;;;;;1.13;57.14;100938.88;5017318;28;20052;-76
2022/03/07 04:43:45;;;;;;;28.25;15.57;;;;;;;1.18;57.03;100933.66;5035557;28;20022;-76
2022/03/07 04:46:11;;;;;;;26.70;15.02;;;;;;;1.21;57.21;100944.09;5001707;28;20032;-76
2022/03/07 04:48:41;;;;;;;28.13;15.35;;;;;;;1.18;57.33;100935.66;5034881;28;20397;-77
2022/03/07 04:51:06;;;;;;;27.30;15.38;;;;;;;1.17;57.55;100943.28;5000527;28;20025;-77
2022/03/07 04:53:33;;;;;;;29.42;14.40;;;;;;;1.20;57.50;100944.47;5033943;28;20387;-77
2022/03/07 04:55:59;;;;;;;23.90;14.15;;;;;;;1.15;57.42;100942.88;5016030;28;20021;-77
2022/03/07 04:58:25;;;;;;;25.55;14.32;;;;;;;1.21;57.46;100954.50;4999636;28;20037;-75
2022/03/07 05:00:53;;;;;;;27.83;14.38;;;;;;;1.20;57.69;100944.47;5033507;28;20026;-76
2022/03/07 05:03:21;;;;;;;26.15;13.55;;;;;;;1.21;57.67;100949.69;5016042;28;20065;-77
2022/03/07 05:05:55;;;;;;;29.25;15.32;;;;;;;1.22;58.06;100961.72;5033481;28;20486;-78
2022/03/07 05:08:29;;;;;;;24.77;13.43;;;;;;;1.24;58.70;100960.09;5033657;28;20061;-77
2022/03/07 05:10:55;;;;;;;25.50;13.77;;;;;;;1.29;57.63;100958.91;4999287;28;20156;-77
2022/03/07 05:13:21;;;;;;;25.98;13.40;;;;;;;1.31;58.06;100956.50;4999198;28;20037;-78
2022/03/07 05:15:47;;;;;;;26.65;13.57;;;;;;;1.30;58.68;100963.31;4999402;28;20022;-78
2022/03/07 05:18:14;;;;;;;27.48;13.48;;;;;;;1.36;58.01;100967.34;5015773;28;20052;-78
2022/03/07 05:20:43;;;;;;;23.45;13.18;;;;;;;1.35;57.88;100950.88;5033283;28;20030;-76
2022/03/07 05:23:09;;;;;;;26.25;13.10;;;;;;;1.43;58.02;100967.31;5033491;28;20091;-77
2022/03/07 05:25:35;;;;;;;24.38;12.73;;;;;;;1.41;58.37;100969.75;5033393;28;20029;-78
2022/03/07 05:28:02;;;;;;;24.25;12.80;;;;;;;1.47;58.44;100973.75;5033443;28;20109;-77
2022/03/07 05:30:28;;;;;;;30.40;13.15;;;;;;;1.41;58.52;100972.56;4999238;28;20064;-77
2022/03/07 05:32:55;;;;;;;26.30;11.95;;;;;;;1.42;58.38;100976.16;5034777;28;20144;-77
2022/03/07 05:35:21;;;;;;;21.90;11.85;;;;;;;1.41;59.16;100980.97;5018329;28;20029;-76
2022/03/07 05:37:52;;;;;;;22.30;12.70;;;;;;;1.45;59.12;100981.75;5019245;28;20104;-78
2022/03/07 05:40:19;;;;;;;23.42;11.68;;;;;;;1.47;58.93;100978.56;5015970;28;20057;-77
2022/03/07 05:42:59;;;;;;;21.70;11.75;;;;;;;1.48;59.56;100978.16;4999874;28;20038;-77
2022/03/07 05:45:26;;;;;;;23.60;12.23;;;;;;;1.52;59.44;100981.78;5000746;28;20053;-77
2022/03/07 05:47:55;;;;;;;30.20;12.35;;;;;;;1.56;59.55;100993.81;5016789;28;20026;-76
2022/03/07 05:50:21;;;;;;;23.75;12.13;;;;;;;1.62;59.70;100994.22;5018310;28;20030;-77
2022/03/07 05:52:47;;;;;;;28.58;13.32;;;;;;;1.65;59.75;101002.63;5016189;28;20025;-79
2022/03/07 05:55:21;;;;;;;27.42;12.13;;;;;;;1.66;59.96;100992.19;5017546;28;20029;-79
2022/03/07 05:57:48;;;;;;;23.13;11.75;;;;;;;1.69;59.67;100992.19;5016873;28;20115;-77
2022/03/07 06:00:16;;;;;;;19.45;11.38;;;;;;;1.65;60.10;100985.78;5016769;28;20033;-76
2022/03/07 06:02:42;;;;;;;21.48;12.05;;;;;;;1.68;59.68;100978.53;4999763;28;20026;-77
2022/03/07 06:05:10;;;;;;;27.52;12.50;;;;;;;1.75;59.92;100989.78;5016427;28;20021;-82
2022/03/07 06:07:37;;;;;;;24.63;12.40;;;;;;;1.78;60.16;100986.16;5000907;28;20470;-76
2022/03/07 06:10:04;;;;;;;16.67;9.75;;;;;;;1.89;60.03;100994.56;5016416;28;20030;-76
2022/03/07 06:12:30;;;;;;;28.60;11.93;;;;;;;1.88;60.15;101001.41;5016916;28;20029;-77
2022/03/07 06:14:57;;;;;;;22.50;13.50;;;;;;;1.89;60.41;100998.19;4999363;28;20076;-77
2022/03/07 06:17:23;;;;;;;21.77;11.25;;;;;;;2.01;60.70;100994.97;4998694;28;20034;-76
2022/03/07 06:19:49;;;;;;;24.48;11.38;;;;;;;2.10;60.13;100997.38;5015490;28;20038;-75
2022/03/07 06:22:16;;;;;;;22.08;10.77;;;;;;;2.21;60.01;100995.34;5013093;28;20114;-75
2022/03/07 06:24:43;;;;;;;26.08;11.57;;;;;;;2.38;59.81;101000.09;5015125;28;20467;-75
2022/03/07 06:27:09;;;;;;;19.95;11.88;;;;;;;2.54;59.17;100997.63;5016667;28;20025;-74
2022/03/07 06:29:34;;;;;;;16.45;10.95;;;;;;;2.67;59.22;100999.97;5015005;28;20029;-78
2022/03/07 06:32:01;;;;;;;24.02;11.32;;;;;;;2.82;58.58;100998.72;5015069;28;20022;-78
2022/03/07 06:34:26;;;;;;;20.90;10.52;;;;;;;2.95;58.64;100999.88;5014604;28;20033;-75
2022/03/07 06:36:52;;;;;;;22.92;10.93;;;;;;;3.08;58.48;101003.81;5017708;28;20141;-80
2022/03/07 06:39:19;;;;;;;20.15;10.60;;;;;;;3.23;58.12;101004.53;5023346;28;20052;-84
2022/03/07 06:41:45;;;;;;;21.67;11.15;;;;;;;3.27;58.51;100994.84;5022177;28;20088;-78
2022/03/07 06:44:12;;;;;;;25.10;11.73;;;;;;;3.36;58.18;100997.19;5002015;28;20022;-75
2022/03/07 06:46:59;;;;;;;27.65;11.95;;;;;;;3.55;58.10;101007.94;5001489;28;20166;-79
2022/03/07 06:49:25;;;;;;;20.88;12.02;;;;;;;3.69;58.05;100999.38;4996011;28;20038;-79
2022/03/07 06:51:51;;;;;;;33.83;14.00;;;;;;;3.89;57.04;100999.59;4995726;28;20037;-78
2022/03/07 06:54:18;;;;;;;32.63;14.27;;;;;;;4.07;56.75;101003.03;4995891;28;20427;-76
2022/03/07 06:56:45;;;;;;;25.48;12.40;;;;;;;4.26;56.42;101002.44;4995184;28;20045;-77
2022/03/07 06:59:12;;;;;;;32.20;13.60;;;;;;;4.39;55.59;100994.22;5011184;28;20125;-77
2022/03/07 07:01:38;;;;;;;26.05;13.35;;;;;;;4.25;55.02;100986.75;4998354;28;20092;-76
2022/03/07 07:04:05;;;;;;;27.00;12.35;;;;;;;4.24;56.10;101002.03;5014822;28;20029;-77
2022/03/07 07:06:38;;;;;;;27.60;12.98;;;;;;;4.31;55.70;101001.19;5014837;28;20411;-76
2022/03/07 07:09:05;;;;;;;29.15;14.30;;;;;;;4.40;55.99;100998.66;5013741;28;20048;-79
2022/03/07 07:11:32;;;;;;;28.63;12.10;;;;;;;5.90;55.48;101001.81;5012369;28;20478;-77
2022/03/07 07:13:57;;;;;;;24.00;11.25;;;;;;;9.85;46.26;100982.91;5013140;28;20030;-71
2022/03/07 07:16:32;;;;;;;19.77;9.85;;;;;;;13.38;39.40;100967.63;5014252;28;20478;-71
2022/03/07 07:18:58;;;;;;;15.95;8.73;;;;;;;13.48;36.41;100965.53;5015031;28;20033;-71
2022/03/07 07:21:23;;;;;;;22.98;9.25;;;;;;;13.13;38.01;100975.81;5013445;28;20038;-72
2022/03/07 07:23:49;;;;;;;15.55;9.00;;;;;;;14.01;35.30;100970.69;5013584;28;20026;-70
2022/03/07 07:26:17;;;;;;;18.20;9.27;;;;;;;12.64;36.84;100976.03;5015506;28;20034;-71
2022/03/07 07:28:45;;;;;;;23.25;11.55;;;;;;;11.57;38.40;100976.94;5013606;28;20534;-73
2022/03/07 07:31:13;;;;;;;32.90;13.25;;;;;;;13.94;36.63;100971.84;5015220;28;20119;-71
2022/03/07 07:33:38;;;;;;;21.67;11.27;;;;;;;18.80;29.86;100937.31;5013453;28;20467;-72
2022/03/07 07:36:04;;;;;;;17.52;8.27;;;;;;;22.24;24.74;100937.91;5000233;28;20034;-73
2022/03/07 07:38:31;;;;;;;17.27;9.00;;;;;;;21.56;24.02;100949.94;5016272;28;20030;-72
2022/03/07 07:40:57;;;;;;;17.00;8.73;;;;;;;20.83;24.67;100955.41;5034475;28;20026;-71
2022/03/07 07:43:23;;;;;;;18.15;7.63;;;;;;;18.78;26.70;100955.16;5016657;28;20026;-72
2022/03/07 07:45:50;;;;;;;14.45;8.73;;;;;;;18.89;25.98;100951.53;5034137;28;20105;-72
2022/03/07 07:48:15;;;;;;;13.38;9.02;;;;;;;20.45;23.51;100945.63;5016307;28;20068;-73
2022/03/07 07:50:42;;;;;;;21.90;9.80;;;;;;;22.75;21.32;100938.84;5016741;28;20060;-73
2022/03/07 07:53:09;;;;;;;19.98;9.68;;;;;;;23.52;19.75;100944.84;5034352;28;20079;-73
2022/03/07 07:55:37;;;;;;;13.73;9.15;;;;;;;22.68;20.09;100962.69;5034009;28;20096;-73
2022/03/07 07:58:02;;;;;;;16.25;9.35;;;;;;;20.68;22.39;100961.56;5033947;28;20039;-71
2022/03/07 08:00:29;;;;;;;18.38;9.75;;;;;;;20.92;22.75;100976.16;5033994;28;20112;-75
2022/03/07 08:03:01;;;;;;;16.42;9.23;;;;;;;22.71;20.84;100960.84;5017300;28;20038;-75
2022/03/07 08:05:27;;;;;;;;;;;;;;;23.95;19.55;100959.13;5034780;28;20030;-74
2022/03/07 08:07:53;;;;;;;19.27;10.07;;;;;;;24.43;19.86;100954.25;5034920;28;19905;-77
2022/03/07 08:10:21;;;;;;;19.50;9.18;;;;;;;24.62;19.52;100957.06;5034316;28;20041;-76
2022/03/07 08:12:47;;;;;;;18.38;9.48;;;;;;;24.85;19.33;100947.25;4997377;28;20033;-76
2022/03/07 08:15:14;;;;;;;20.17;10.10;;;;;;;24.74;19.58;100967.88;5015932;28;20044;-75
2022/03/07 08:17:49;;;;;;;15.13;9.50;;;;;;;24.34;19.61;100966.34;5033518;28;20033;-76
2022/03/07 08:20:18;;;;;;;19.58;8.93;;;;;;;23.05;20.01;100967.75;5016729;28;20458;-76
2022/03/07 08:22:45;;;;;;;16.67;9.48;;;;;;;21.40;21.33;100969.84;5016784;28;20048;-76
2022/03/07 08:25:16;;;;;;;15.32;8.50;;;;;;;19.24;22.86;100974.91;5016247;28;20477;-77
2022/03/07 08:27:41;;;;;;;20.90;9.30;;;;;;;17.67;25.33;100989.94;5016639;28;20040;-74
2022/03/07 08:30:10;;;;;;;14.43;9.40;;;;;;;17.12;26.84;100986.53;4983516;28;20029;-75
2022/03/07 08:32:45;;;;;;;17.75;10.23;;;;;;;17.07;26.94;100988.03;4998972;28;20021;-74
2022/03/07 08:35:20;;;;;;;24.15;12.98;;;;;;;17.37;26.84;100984.91;5016125;28;20022;-75
2022/03/07 08:37:48;;;;;;;23.25;10.23;;;;;;;17.34;27.41;100975.22;5016300;28;20033;-74
2022/03/07 08:40:16;;;;;;;17.73;9.30;;;;;;;17.78;26.21;100974.81;5013582;28;20452;-77
2022/03/07 08:42:44;;;;;;;14.80;8.90;;;;;;;17.64;25.77;100961.34;5014287;28;20022;-76
2022/03/07 08:45:11;;;;;;;23.70;9.68;;;;;;;16.97;26.35;100962.84;5012441;28;20033;-76
2022/03/07 08:47:46;;;;;;;23.20;8.93;;;;;;;16.45;26.91;100956.97;5011874;28;20030;-75
2022/03/07 08:50:12;;;;;;;17.00;8.45;;;;;;;16.32;27.70;100965.19;5014036;28;20034;-74
2022/03/07 08:52:39;;;;;;;12.32;7.57;;;;;;;16.48;27.61;100955.97;5013839;28;20022;-76
2022/03/07 08:55:06;;;;;;;15.55;10.00;;;;;;;16.27;27.75;100958.06;5011862;28;20033;-76
2022/03/07 08:57:32;;;;;;;24.88;11.50;;;;;;;15.86;28.48;100956.44;4996205;28;20037;-76
2022/03/07 08:59:58;;;;;;;23.55;9.82;;;;;;;15.33;29.55;100959.50;4979657;28;20041;-77
2022/03/07 09:02:24;;;;;;;18.75;9.23;;;;;;;14.62;30.57;100949.06;4995961;28;20026;-76
2022/03/07 09:04:50;;;;;;;16.55;9.32;;;;;;;14.63;31.40;100951.44;4995984;28;20181;-75
2022/03/07 09:07:17;;;;;;;17.58;9.75;;;;;;;14.83;31.35;100944.25;5015425;28;20096;-75
2022/03/07 09:09:46;;;;;;;19.23;9.10;;;;;;;14.86;31.37;100932.56;5021144;28;20030;-78
2022/03/07 09:12:12;;;;;;;16.10;8.88;;;;;;;14.78;31.88;100917.06;5019442;28;20065;-77
2022/03/07 09:14:40;;;;;;;15.18;10.02;;;;;;;14.94;31.41;100924.38;5019089;28;20026;-74
2022/03/07 09:17:06;;;;;;;21.77;10.18;;;;;;;14.57;31.50;100916.13;5018639;28;20026;-75
2022/03/07 09:19:32;;;;;;;11.52;8.80;;;;;;;14.43;32.86;100927.56;5000105;28;20036;-75
2022/03/07 09:21:58;;;;;;;19.65;10.05;;;;;;;14.14;32.19;100928.25;5017911;28;20033;-76
2022/03/07 09:24:25;;;;;;;11.95;8.43;;;;;;;13.60;32.67;100932.25;5012853;28;20038;-75
2022/03/07 09:26:52;;;;;;;12.52;8.23;;;;;;;13.07;33.42;100921.31;5017335;28;20113;-73
2022/03/07 09:29:19;;;;;;;14.38;9.40;;;;;;;12.86;34.08;100911.69;5000731;28;20042;-74
2022/03/07 09:31:44;;;;;;;20.13;9.75;;;;;;;12.70;34.38;100909.16;5018307;28;20099;-76
2022/03/07 09:34:12;;;;;;;23.02;12.63;;;;;;;12.63;34.90;100923.78;5017631;28;20025;-75
2022/03/07 09:36:40;;;;;;;20.98;10.35;;;;;;;12.81;34.66;100918.06;5021308;28;20075;-79
2022/03/07 09:39:11;;;;;;;20.23;10.10;;;;;;;13.14;34.62;100908.75;5026869;28;20124;-80
2022/03/07 09:41:47;;;;;;;17.23;9.73;;;;;;;13.56;34.31;100908.75;5040384;28;20030;-79
2022/03/07 09:44:15;;;;;;;16.50;8.57;;;;;;;13.94;34.74;100902.31;5039968;28;20109;-79
2022/03/07 09:46:44;;;;;;;16.90;10.18;;;;;;;14.19;33.57;100908.31;5024886;28;20487;-81
2022/03/07 09:49:11;;;;;;;16.15;9.63;;;;;;;14.48;33.20;100903.97;5024725;28;20037;-83
2022/03/07 09:51:40;;;;;;;21.35;9.60;;;;;;;14.42;34.33;100903.84;5006328;28;20029;-75
2022/03/07 09:54:07;;;;;;;16.15;9.73;;;;;;;14.43;33.41;100896.03;5043019;28;20036;-79
2022/03/07 09:56:33;;;;;;;14.25;8.65;;;;;;;14.45;33.67;100879.97;4989358;28;20057;-78
2022/03/07 09:59:07;;;;;;;14.98;8.77;;;;;;;14.74;33.87;100889.84;5039860;28;20029;-77
2022/03/07 10:01:41;;;;;;;17.58;10.02;;;;;;;15.30;33.22;100889.50;5007500;28;20021;-83
2022/03/07 10:04:09;;;;;;;17.08;9.93;;;;;;;15.29;31.79;100884.28;5044534;28;20021;-83
2022/03/07 10:06:36;;;;;;;12.98;8.75;;;;;;;15.06;31.74;100877.38;5041932;28;20034;-84
2022/03/07 10:09:04;;;;;;;14.07;8.45;;;;;;;14.76;31.92;100881.53;5042688;28;20032;-81
2022/03/07 10:11:31;;;;;;;18.70;9.80;;;;;;;14.35;32.12;100891.97;5020238;28;20091;-81
2022/03/07 10:14:05;;;;;;;20.30;9.30;;;;;;;14.30;32.57;100895.50;5038130;28;20026;-80
2022/03/07 10:16:40;;;;;;;12.57;8.52;;;;;;;14.18;32.26;100892.41;5023103;28;20076;-82
2022/03/07 10:19:21;;;;;;;12.15;7.80;;;;;;;14.07;32.77;100885.66;5021714;28;20025;-83
2022/03/07 10:21:52;;;;;;;17.40;7.93;;;;;;;13.51;33.25;100880.78;5052710;28;20025;-83
2022/03/07 10:24:19;;;;;;;15.65;8.45;;;;;;;13.30;34.03;100885.50;5039838;28;20006;-80
2022/03/07 10:26:44;;;;;;;14.07;8.90;;;;;;;13.17;33.99;100896.38;5024145;28;20169;-80
2022/03/07 10:29:10;;;;;;;11.38;7.45;;;;;;;12.83;34.78;100895.47;5036956;28;20450;-79
2022/03/07 10:31:37;;;;;;;16.33;9.30;;;;;;;12.75;35.82;100894.22;5021147;28;20378;-78
2022/03/07 10:34:08;;;;;;;10.85;7.97;;;;;;;12.72;36.10;100903.78;5020847;28;20037;-82
2022/03/07 10:36:37;;;;;;;15.20;9.00;;;;;;;12.72;35.34;100900.91;5016558;28;20021;-80
2022/03/07 10:39:06;;;;;;;16.67;8.18;;;;;;;12.61;35.84;100899.81;5017674;28;20042;-81
2022/03/07 10:41:42;;;;;;;19.45;8.88;;;;;;;12.51;35.90;100905.56;5006567;28;20025;-80
2022/03/07 10:44:29;;;;;;;10.48;7.88;;;;;;;12.32;35.01;100894.63;5021641;28;20104;-80
2022/03/07 10:47:21;;;;;;;14.18;8.02;;;;;;;11.97;35.18;100900.63;5020814;28;20028;-82
2022/03/07 10:49:59;;;;;;;23.40;9.70;;;;;;;11.51;35.46;100899.72;5018932;28;20029;-79
2022/03/07 10:52:34;;;;;;;15.00;7.95;;;;;;;11.07;36.78;100884.81;5035980;28;20431;-82
2022/03/07 10:55:01;;;;;;;11.63;7.30;;;;;;;10.98;36.38;100887.63;5002075;28;20105;-81
2022/03/07 10:57:27;;;;;;;12.23;5.20;;;;;;;10.83;36.72;100887.41;5012613;28;20037;-81
2022/03/07 10:59:53;;;;;;;11.48;6.63;;;;;;;10.62;37.37;100885.38;5035163;28;20017;-81
2022/03/07 11:02:19;;;;;;;10.18;6.72;;;;;;;10.48;37.11;100887.97;5001271;28;20044;-80
2022/03/07 11:04:48;;;;;;;13.43;6.43;;;;;;;10.43;37.29;100871.47;4985596;28;20351;-78
2022/03/07 11:07:22;;;;;;;11.13;5.90;;;;;;;10.34;39.03;100881.56;5017334;28;20041;-80
2022/03/07 11:09:52;;;;;;;14.82;7.18;;;;;;;10.39;38.56;100872.41;5018505;28;20102;-80
2022/03/07 11:12:19;;;;;;;19.38;6.38;;;;;;;10.19;39.18;100871.16;5036438;28;20029;-81
2022/03/07 11:14:46;;;;;;;16.58;7.30;;;;;;;9.86;39.87;100865.00;4985656;28;20095;-83
2022/03/07 11:17:17;;;;;;;26.40;7.53;;;;;;;9.81;40.53;100866.38;5001587;28;20028;-79